Time;durP1;ratioP1;P1;durP2;ratioP2;P2;SDS_P1;SDS_P2;PMS_P1;PMS_P2;Temp;Humidity;BMP_temperature;BMP_pressure;BME280_temperature;BME280_humidity;BME280_pressure;Samples;Min_cycle;Max_cycle;Signal;HPM_P1;HPM_P2
2021/09/06 04:01:07;;;;;;;22.83;14.95;;;10.30;99.90;;;;;;6125508;23;20310;-71
2021/09/06 04:03:34;;;;;;;22.30;14.82;;;10.30;99.90;;;;;;6153091;23;20179;-71
2021/09/06 04:06:01;;;;;;;23.15;14.85;;;10.30;99.90;;;;;;6153025;23;20183;-71
2021/09/06 04:08:28;;;;;;;21.52;13.95;;;10.20;99.90;;;;;;6153793;23;20160;-72
2021/09/06 04:10:55;;;;;;;21.35;14.20;;;10.20;99.90;;;;;;6153311;23;20199;-71
2021/09/06 04:13:21;;;;;;;20.25;13.82;;;10.20;99.90;;;;;;6153264;23;20589;-71
2021/09/06 04:15:48;;;;;;;18.17;13.75;;;10.20;99.90;;;;;;6153431;23;20179;-71
2021/09/06 04:18:17;;;;;;;24.63;14.95;;;10.20;99.90;;;;;;6152894;23;20195;-71
2021/09/06 04:20:44;;;;;;;18.48;13.60;;;10.10;99.90;;;;;;6152756;23;20203;-71
2021/09/06 04:23:11;;;;;;;18.38;14.32;;;10.10;99.90;;;;;;6153159;23;20254;-72
2021/09/06 04:25:38;;;;;;;22.45;14.30;;;10.10;99.90;;;;;;6153980;23;20542;-71
2021/09/06 04:28:05;;;;;;;24.98;15.90;;;10.10;99.90;;;;;;6153593;23;20187;-71
2021/09/06 04:30:31;;;;;;;16.73;12.98;;;10.10;99.90;;;;;;6153586;23;20230;-71
2021/09/06 04:32:58;;;;;;;19.83;14.18;;;10.10;99.90;;;;;;6152639;23;20246;-71
2021/09/06 04:35:26;;;;;;;20.65;13.05;;;10.00;99.90;;;;;;6153391;23;20287;-71
2021/09/06 04:37:53;;;;;;;21.40;14.57;;;10.00;99.90;;;;;;6155602;23;20250;-72
2021/09/06 04:40:19;;;;;;;25.00;15.85;;;10.00;99.90;;;;;;6156817;23;20649;-71
2021/09/06 04:42:46;;;;;;;23.75;15.00;;;10.00;99.90;;;;;;6155011;23;20461;-71
2021/09/06 04:45:13;;;;;;;24.80;14.18;;;10.00;99.90;;;;;;6155651;23;20186;-71
2021/09/06 04:47:39;;;;;;;22.55;15.50;;;10.00;99.90;;;;;;6155261;23;20285;-71
2021/09/06 04:50:07;;;;;;;21.30;14.55;;;10.00;99.90;;;;;;6154454;23;20610;-71
2021/09/06 04:52:35;;;;;;;20.73;14.38;;;10.00;99.90;;;;;;6155806;23;20180;-71
2021/09/06 04:55:01;;;;;;;22.80;15.07;;;10.00;99.90;;;;;;6155353;23;20183;-71
2021/09/06 04:57:28;;;;;;;23.30;14.52;;;10.00;99.90;;;;;;6155336;23;20179;-71
2021/09/06 04:59:55;;;;;;;20.58;14.48;;;10.00;99.90;;;;;;6154849;23;20196;-71
2021/09/06 05:02:21;;;;;;;19.02;14.88;;;10.10;99.90;;;;;;6154246;23;20278;-71
2021/09/06 05:04:48;;;;;;;21.83;13.88;;;10.10;99.90;;;;;;6154218;23;20183;-71
2021/09/06 05:07:15;;;;;;;18.98;14.05;;;10.10;99.90;;;;;;6154435;23;20295;-71
2021/09/06 05:09:43;;;;;;;25.65;14.35;;;10.10;99.90;;;;;;6155083;23;20282;-71
2021/09/06 05:12:09;;;;;;;19.70;14.70;;;10.10;99.90;;;;;;6154753;23;20203;-71
2021/09/06 05:14:36;;;;;;;20.83;14.40;;;10.20;99.90;;;;;;6155068;23;20269;-71
2021/09/06 05:17:03;;;;;;;20.08;14.15;;;10.20;99.90;;;;;;6154331;23;20187;-71
2021/09/06 05:19:30;;;;;;;23.42;15.90;;;10.20;99.90;;;;;;6154468;23;20183;-71
2021/09/06 05:21:56;;;;;;;22.77;15.13;;;10.30;99.90;;;;;;6154846;23;20203;-78
2021/09/06 05:24:23;;;;;;;19.23;13.45;;;10.30;99.90;;;;;;6154462;23;20182;-71
2021/09/06 05:26:51;;;;;;;22.02;16.17;;;10.40;99.90;;;;;;6154803;23;20186;-71
2021/09/06 05:29:17;;;;;;;21.25;13.80;;;10.40;99.90;;;;;;6162311;23;20275;-71
2021/09/06 05:31:44;;;;;;;19.90;13.65;;;10.50;99.90;;;;;;6154271;23;20211;-71
2021/09/06 05:34:11;;;;;;;22.08;15.10;;;10.50;99.90;;;;;;6154772;23;20191;-71
2021/09/06 05:36:37;;;;;;;22.42;14.13;;;10.50;99.90;;;;;;6153979;23;20215;-71
2021/09/06 05:39:04;;;;;;;22.60;15.30;;;10.60;99.90;;;;;;6154343;23;20199;-71
2021/09/06 05:41:31;;;;;;;16.75;12.25;;;10.60;99.90;;;;;;6154354;23;20207;-71
2021/09/06 05:43:59;;;;;;;19.98;12.93;;;10.70;99.90;;;;;;6154487;23;20186;-71
2021/09/06 05:46:26;;;;;;;17.15;13.55;;;10.70;99.90;;;;;;6154026;23;20191;-71
2021/09/06 05:48:52;;;;;;;18.40;13.32;;;10.80;99.90;;;;;;6154567;23;20553;-71
2021/09/06 05:51:19;;;;;;;15.15;12.63;;;10.80;99.90;;;;;;6154175;23;20493;-71
2021/09/06 05:53:45;;;;;;;16.95;12.02;;;10.90;99.90;;;;;;6154134;23;20187;-71
2021/09/06 05:56:12;;;;;;;20.33;13.30;;;10.90;99.90;;;;;;6154624;23;20325;-71
2021/09/06 05:58:39;;;;;;;25.05;13.27;;;11.00;99.90;;;;;;6154547;23;20179;-71
2021/09/06 06:01:07;;;;;;;16.80;12.55;;;11.10;99.90;;;;;;6154171;23;20748;-71
2021/09/06 06:03:33;;;;;;;20.73;14.00;;;11.10;99.90;;;;;;6154470;23;20190;-72
2021/09/06 06:06:00;;;;;;;15.40;11.80;;;11.20;99.90;;;;;;6153684;23;20188;-72
2021/09/06 06:08:27;;;;;;;17.92;13.15;;;11.30;99.90;;;;;;6154462;23;20249;-72
2021/09/06 06:10:53;;;;;;;18.65;12.18;;;11.30;99.90;;;;;;6154589;23;20207;-73
2021/09/06 06:13:20;;;;;;;19.08;13.52;;;11.40;99.90;;;;;;6154483;23;20180;-72
2021/09/06 06:15:46;;;;;;;18.05;13.35;;;11.50;99.90;;;;;;6153861;23;20598;-72
2021/09/06 06:18:14;;;;;;;18.77;12.95;;;11.50;99.90;;;;;;6153988;23;20183;-72
2021/09/06 06:20:41;;;;;;;18.88;14.25;;;11.60;99.90;;;;;;6154019;23;20253;-72
2021/09/06 06:23:08;;;;;;;16.42;12.82;;;11.70;99.90;;;;;;6154128;23;20501;-72
2021/09/06 06:25:34;;;;;;;17.85;13.48;;;11.80;99.90;;;;;;6154260;23;20483;-72
2021/09/06 06:28:01;;;;;;;19.50;13.77;;;11.80;99.90;;;;;;6153956;23;20179;-72
2021/09/06 06:30:27;;;;;;;22.63;15.38;;;11.90;99.90;;;;;;6153784;23;20665;-72
2021/09/06 06:32:54;;;;;;;17.98;13.75;;;12.00;99.90;;;;;;6153659;23;20195;-72
2021/09/06 06:35:22;;;;;;;17.87;14.07;;;12.10;99.90;;;;;;6153010;23;20333;-72
2021/09/06 06:37:49;;;;;;;20.88;12.38;;;12.20;99.90;;;;;;6153867;23;20903;-72
2021/09/06 06:40:16;;;;;;;17.73;12.10;;;12.20;99.90;;;;;;6153374;23;20250;-72
2021/09/06 06:42:42;;;;;;;19.50;14.20;;;12.30;99.90;;;;;;6153692;23;20881;-72
2021/09/06 06:45:10;;;;;;;18.80;13.60;;;12.30;99.90;;;;;;6154099;23;20437;-72
2021/09/06 06:47:36;;;;;;;18.20;14.03;;;12.40;99.90;;;;;;6153720;23;20730;-72
2021/09/06 06:50:03;;;;;;;21.47;14.27;;;12.50;99.90;;;;;;6153822;23;20428;-72
2021/09/06 06:52:31;;;;;;;22.23;14.20;;;12.60;99.90;;;;;;6154047;23;20493;-72
2021/09/06 06:54:58;;;;;;;15.40;13.77;;;12.70;99.90;;;;;;6154233;23;20423;-72
2021/09/06 06:57:25;;;;;;;16.40;12.70;;;12.80;99.90;;;;;;6154083;23;20426;-72
2021/09/06 06:59:51;;;;;;;18.40;13.53;;;12.90;99.90;;;;;;6153757;23;20450;-72
2021/09/06 07:02:19;;;;;;;18.87;14.53;;;13.00;99.90;;;;;;6152876;23;20450;-72
2021/09/06 07:04:46;;;;;;;20.40;15.20;;;13.10;99.90;;;;;;6152934;23;20894;-72
2021/09/06 07:07:12;;;;;;;22.77;16.20;;;13.30;99.90;;;;;;6154220;23;20431;-73
2021/09/06 07:09:40;;;;;;;20.30;15.60;;;13.40;99.90;;;;;;6153953;23;20422;-72
2021/09/06 07:12:07;;;;;;;21.40;16.30;;;13.50;99.90;;;;;;6153937;23;20497;-71
2021/09/06 07:14:34;;;;;;;20.27;15.10;;;13.60;99.90;;;;;;6154332;23;20422;-72
2021/09/06 07:17:00;;;;;;;19.93;15.83;;;13.80;99.90;;;;;;6153988;23;20427;-73
2021/09/06 07:19:27;;;;;;;22.10;15.70;;;13.90;99.90;;;;;;6154358;23;20450;-72
2021/09/06 07:21:53;;;;;;;22.73;18.60;;;14.10;99.90;;;;;;6154291;23;20446;-71
2021/09/06 07:24:20;;;;;;;19.73;16.13;;;14.20;99.90;;;;;;6153532;23;20439;-73
2021/09/06 07:26:48;;;;;;;23.53;17.23;;;14.30;99.90;;;;;;6155834;23;20426;-71
2021/09/06 07:29:15;;;;;;;27.13;18.20;;;14.40;99.90;;;;;;6154835;23;20427;-70
2021/09/06 07:31:41;;;;;;;22.00;17.80;;;14.50;99.90;;;;;;6154026;23;20454;-70
2021/09/06 07:34:08;;;;;;;21.00;16.63;;;14.60;99.90;;;;;;6153971;23;20472;-70
2021/09/06 07:36:36;;;;;;;20.77;16.90;;;14.70;99.90;;;;;;6153748;23;20426;-73
2021/09/06 07:39:03;;;;;;;24.70;18.60;;;14.80;99.90;;;;;;6154367;23;20430;-72
2021/09/06 07:41:30;;;;;;;26.03;17.40;;;14.90;99.90;;;;;;6153755;23;20924;-70
2021/09/06 07:43:58;;;;;;;26.27;18.33;;;15.00;99.90;;;;;;6155623;23;20473;-70
2021/09/06 07:46:24;;;;;;;28.10;19.60;;;15.10;99.90;;;;;;6153349;23;20426;-70
2021/09/06 07:48:52;;;;;;;26.83;18.47;;;15.20;99.90;;;;;;6154511;23;20534;-70
2021/09/06 07:51:19;;;;;;;25.30;18.53;;;15.20;99.90;;;;;;6152978;23;20971;-71
2021/09/06 07:53:45;;;;;;;25.47;18.60;;;15.30;99.90;;;;;;6154130;23;20430;-72
2021/09/06 07:56:12;;;;;;;23.17;17.93;;;15.30;99.90;;;;;;6154286;23;20795;-71
2021/09/06 07:58:39;;;;;;;22.83;17.00;;;15.40;99.90;;;;;;6159459;23;20977;-72
2021/09/06 08:01:07;;;;;;;18.20;16.10;;;15.40;99.90;;;;;;6154219;23;20458;-73
2021/09/06 08:03:33;;;;;;;18.60;15.50;;;15.50;99.90;;;;;;6153992;23;20430;-72
2021/09/06 08:06:00;;;;;;;22.03;15.70;;;15.60;99.90;;;;;;6155237;23;20429;-71
2021/09/06 08:08:27;;;;;;;19.20;15.73;;;15.70;99.90;;;;;;6168293;23;20524;-71
2021/09/06 08:10:53;;;;;;;19.23;15.33;;;15.80;99.90;;;;;;6154965;23;20441;-72
2021/09/06 08:13:21;;;;;;;18.50;13.97;;;15.90;99.90;;;;;;6157042;23;20501;-72
2021/09/06 08:15:47;;;;;;;17.53;13.90;;;15.90;99.90;;;;;;6155561;23;20447;-72
2021/09/06 08:18:15;;;;;;;15.53;13.00;;;16.00;99.90;;;;;;6155327;23;20477;-72
2021/09/06 08:20:42;;;;;;;21.10;14.83;;;16.20;99.90;;;;;;6154814;23;20458;-71
2021/09/06 08:23:09;;;;;;;17.20;13.33;;;16.30;99.90;;;;;;6155638;23;20541;-71
2021/09/06 08:25:36;;;;;;;17.07;12.77;;;16.40;99.90;;;;;;6155722;23;20477;-72
2021/09/06 08:28:03;;;;;;;18.43;14.27;;;16.50;99.90;;;;;;6155574;23;20433;-71
2021/09/06 08:30:30;;;;;;;19.23;14.03;;;16.60;99.90;;;;;;6155555;23;20442;-72
2021/09/06 08:32:57;;;;;;;17.50;13.20;;;16.70;99.90;;;;;;6154653;23;20865;-72
2021/09/06 08:35:25;;;;;;;18.20;13.50;;;16.80;99.90;;;;;;6155286;23;20738;-72
2021/09/06 08:37:52;;;;;;;20.03;12.80;;;16.90;99.90;;;;;;6155987;23;20426;-72
2021/09/06 08:40:18;;;;;;;17.27;11.47;;;17.00;99.90;;;;;;6155523;23;20439;-71
2021/09/06 08:42:45;;;;;;;13.00;11.40;;;17.00;99.90;;;;;;6155534;23;20422;-71
2021/09/06 08:45:13;;;;;;;12.83;11.33;;;17.20;99.90;;;;;;6155165;23;20422;-71
2021/09/06 08:47:41;;;;;;;14.23;11.40;;;17.30;99.90;;;;;;6155049;23;20422;-71
2021/09/06 08:50:11;;;;;;;14.00;11.63;;;17.40;99.90;;;;;;6154273;23;20873;-71
2021/09/06 08:52:40;;;;;;;12.33;10.80;;;17.60;99.90;;;;;;6155139;23;20426;-71
2021/09/06 08:55:07;;;;;;;12.23;11.03;;;17.60;99.90;;;;;;6155483;23;20414;-72
2021/09/06 08:57:34;;;;;;;12.70;11.40;;;17.60;99.90;;;;;;6155483;23;20426;-71
2021/09/06 09:00:04;;;;;;;12.93;10.10;;;17.70;99.90;;;;;;6154680;23;20442;-71
2021/09/06 09:02:33;;;;;;;12.60;11.00;;;17.70;99.90;;;;;;6154186;23;20508;-71
2021/09/06 09:05:02;;;;;;;12.60;11.30;;;17.70;99.90;;;;;;6155039;23;20509;-71
2021/09/06 09:07:30;;;;;;;11.70;10.50;;;17.70;99.90;;;;;;6155460;23;20422;-71
2021/09/06 09:09:58;;;;;;;16.47;11.20;;;17.70;99.90;;;;;;6154850;23;20426;-71
2021/09/06 09:12:26;;;;;;;15.20;11.30;;;17.60;99.90;;;;;;6154346;23;21018;-71
2021/09/06 09:14:54;;;;;;;14.60;11.70;;;17.60;99.90;;;;;;6154708;23;20454;-70
2021/09/06 09:17:21;;;;;;;13.30;11.10;;;17.50;99.90;;;;;;6155029;23;20444;-69
2021/09/06 09:19:49;;;;;;;14.53;12.63;;;17.50;99.90;;;;;;6154353;23;20455;-69
2021/09/06 09:22:17;;;;;;;13.53;12.10;;;17.60;99.90;;;;;;6154591;23;20505;-70
2021/09/06 09:24:55;;;;;;;13.50;11.67;;;17.70;99.90;;;;;;6154338;23;20971;-70
2021/09/06 09:27:30;;;;;;;12.53;11.40;;;17.70;99.90;;;;;;6154380;23;20904;-70
2021/09/06 09:29:57;;;;;;;14.00;10.70;;;17.80;99.90;;;;;;6155257;23;20484;-69
2021/09/06 09:32:24;;;;;;;14.83;11.90;;;17.90;99.90;;;;;;6154213;23;20816;-70
2021/09/06 09:34:50;;;;;;;14.13;11.13;;;18.10;99.90;;;;;;6154368;23;20430;-69
2021/09/06 09:37:25;;;;;;;13.07;10.87;;;18.20;99.90;;;;;;6154811;23;20436;-70
2021/09/06 09:39:54;;;;;;;12.57;11.27;;;18.30;99.90;;;;;;6154703;23;20413;-70
2021/09/06 09:42:22;;;;;;;14.63;11.40;;;18.30;99.90;;;;;;6154524;23;20470;-70
2021/09/06 09:44:52;;;;;;;12.27;11.07;;;18.40;99.90;;;;;;6155378;23;20730;-70
2021/09/06 09:47:20;;;;;;;12.03;10.80;;;18.50;99.90;;;;;;6164100;23;20419;-71
2021/09/06 09:49:48;;;;;;;13.83;11.23;;;18.60;99.90;;;;;;6154069;23;20423;-71
2021/09/06 09:52:16;;;;;;;12.67;11.47;;;18.80;99.90;;;;;;6154622;23;20442;-70
2021/09/06 09:54:42;;;;;;;14.53;11.83;;;18.90;99.90;;;;;;6154590;23;20433;-71
2021/09/06 09:57:09;;;;;;;11.30;10.20;;;19.00;99.90;;;;;;6154632;23;20433;-69
2021/09/06 09:59:37;;;;;;;13.47;11.57;;;19.10;99.90;;;;;;6154470;23;20893;-70
2021/09/06 10:02:08;;;;;;;11.03;10.00;;;19.30;99.90;;;;;;6154071;23;20763;-71
2021/09/06 10:04:40;;;;;;;13.60;12.20;;;19.50;99.90;;;;;;6154603;23;20403;-71
2021/09/06 10:07:07;;;;;;;12.17;10.90;;;19.70;99.90;;;;;;6154856;23;20465;-70
2021/09/06 10:09:42;;;;;;;14.10;12.70;;;19.90;99.90;;;;;;6154716;23;20748;-71
2021/09/06 10:12:10;;;;;;;10.90;9.80;;;19.90;99.90;;;;;;6154158;23;20466;-71
2021/09/06 10:14:49;;;;;;;11.77;10.57;;;19.90;99.90;;;;;;6154281;23;20442;-71
2021/09/06 10:17:16;;;;;;;13.57;11.83;;;19.90;99.90;;;;;;6154056;23;20468;-71
2021/09/06 10:19:48;;;;;;;12.00;10.17;;;20.00;99.90;;;;;;6154535;23;20489;-72
2021/09/06 10:22:23;;;;;;;11.90;10.23;;;20.00;99.90;;;;;;6154091;23;20439;-72
2021/09/06 10:24:58;;;;;;;12.50;11.30;;;19.90;99.90;;;;;;6154655;23;20428;-71
2021/09/06 10:27:24;;;;;;;12.20;11.00;;;19.90;99.90;;;;;;6154336;23;20481;-71
2021/09/06 10:30:03;;;;;;;11.10;10.00;;;19.80;99.90;;;;;;6153789;23;20422;-69
2021/09/06 10:32:40;;;;;;;13.13;11.67;;;19.90;99.90;;;;;;6153877;23;20446;-69
2021/09/06 10:35:09;;;;;;;11.63;10.27;;;20.20;99.90;;;;;;6154190;23;20414;-69
2021/09/06 10:37:36;;;;;;;12.33;11.03;;;20.30;99.90;;;;;;6154110;23;20750;-69
2021/09/06 10:40:05;;;;;;;12.30;11.10;;;20.60;99.90;;;;;;6153852;23;20873;-69
2021/09/06 10:42:34;;;;;;;10.30;9.40;;;20.80;99.90;;;;;;6153871;23;20434;-69
2021/09/06 10:45:04;;;;;;;10.43;9.47;;;20.80;99.90;;;;;;6154206;23;20509;-69
2021/09/06 10:47:36;;;;;;;10.40;9.37;;;20.50;99.90;;;;;;6154247;23;20414;-69
2021/09/06 10:50:13;;;;;;;11.50;10.33;;;20.50;99.90;;;;;;6153836;23;20412;-70
2021/09/06 10:52:43;;;;;;;13.30;10.60;;;20.40;99.90;;;;;;6154362;23;20730;-70
2021/09/06 10:55:10;;;;;;;13.77;10.83;;;20.50;99.90;;;;;;6154611;23;20484;-70
2021/09/06 10:57:37;;;;;;;12.13;10.13;;;20.40;99.90;;;;;;6154264;23;20423;-70
2021/09/06 11:00:08;;;;;;;12.13;10.83;;;20.60;99.90;;;;;;6154881;23;20774;-70
2021/09/06 11:02:35;;;;;;;11.67;10.47;;;20.80;99.90;;;;;;6153354;23;20924;-70
2021/09/06 11:05:02;;;;;;;12.17;10.60;;;21.00;99.90;;;;;;6153849;23;20430;-70
2021/09/06 11:07:29;;;;;;;11.70;10.17;;;21.20;99.90;;;;;;6154052;23;20419;-70
2021/09/06 11:09:56;;;;;;;11.57;10.47;;;21.30;99.90;;;;;;6153227;23;20928;-68
2021/09/06 11:12:22;;;;;;;13.17;11.27;;;21.40;99.90;;;;;;6163298;23;20844;-68
2021/09/06 11:14:49;;;;;;;12.30;11.00;;;21.40;99.90;;;;;;6153342;23;20446;-68
2021/09/06 11:17:22;;;;;;;14.97;12.17;;;21.30;99.90;;;;;;6153766;23;20422;-68
2021/09/06 11:19:49;;;;;;;11.00;9.60;;;21.20;99.90;;;;;;6153630;23;20836;-70
2021/09/06 11:22:17;;;;;;;11.63;10.53;;;21.10;99.90;;;;;;6153025;23;20482;-70
2021/09/06 11:24:47;;;;;;;12.20;10.93;;;21.10;99.90;;;;;;6153534;23;20609;-70
2021/09/06 11:27:29;;;;;;;11.97;10.77;;;21.10;99.90;;;;;;6153893;23;20422;-70
2021/09/06 11:29:56;;;;;;;11.80;10.60;;;21.10;99.90;;;;;;6153886;23;20422;-70
2021/09/06 11:32:25;;;;;;;11.67;10.57;;;21.10;99.90;;;;;;6153032;23;20521;-70
2021/09/06 11:35:04;;;;;;;10.73;9.67;;;21.20;99.90;;;;;;6153299;23;20429;-70
2021/09/06 11:37:31;;;;;;;13.60;11.17;;;21.20;99.90;;;;;;6153571;23;20936;-70
2021/09/06 11:39:58;;;;;;;11.30;10.30;;;21.20;99.90;;;;;;6153813;23;20564;-70
2021/09/06 11:42:26;;;;;;;11.13;10.00;;;21.30;99.90;;;;;;6153675;23;20486;-70
2021/09/06 11:44:53;;;;;;;10.10;9.10;;;21.30;99.90;;;;;;6153862;23;20490;-68
2021/09/06 11:47:22;;;;;;;11.30;10.10;;;21.40;99.90;;;;;;6154734;23;20438;-68
2021/09/06 11:49:54;;;;;;;11.00;10.00;;;21.50;99.90;;;;;;6154989;23;20426;-68
2021/09/06 11:52:29;;;;;;;12.07;10.87;;;21.50;99.90;;;;;;6155335;23;20438;-68
2021/09/06 11:54:56;;;;;;;11.40;9.53;;;21.50;99.90;;;;;;6155159;23;20414;-68
2021/09/06 11:57:25;;;;;;;10.43;9.23;;;21.50;99.90;;;;;;6165273;23;20795;-69
2021/09/06 11:59:52;;;;;;;14.20;10.20;;;21.50;99.90;;;;;;6155188;23;20446;-70
2021/09/06 12:02:20;;;;;;;10.13;9.23;;;21.50;99.90;;;;;;6154375;23;20528;-70
2021/09/06 12:04:46;;;;;;;11.13;10.23;;;21.50;99.90;;;;;;6155116;23;20429;-70
2021/09/06 12:07:17;;;;;;;12.20;10.20;;;21.40;99.90;;;;;;6155206;23;20919;-70
2021/09/06 12:09:44;;;;;;;10.27;9.40;;;21.50;99.90;;;;;;6155181;23;20415;-71
2021/09/06 12:12:21;;;;;;;10.90;9.90;;;21.50;99.90;;;;;;6155976;23;20439;-71
2021/09/06 12:14:50;;;;;;;11.20;9.90;;;21.60;99.90;;;;;;6155266;23;20438;-69
2021/09/06 12:17:18;;;;;;;11.30;9.70;;;21.70;99.90;;;;;;6155275;23;20429;-69
2021/09/06 12:19:48;;;;;;;10.53;9.40;;;21.70;99.90;;;;;;6155064;23;20496;-69
2021/09/06 12:22:20;;;;;;;9.63;8.70;;;21.60;99.90;;;;;;6155083;23;20450;-70
2021/09/06 12:24:48;;;;;;;11.00;10.00;;;21.50;99.90;;;;;;6155428;23;20426;-70
2021/09/06 12:27:16;;;;;;;10.37;9.37;;;21.50;99.90;;;;;;6155535;23;20749;-70
2021/09/06 12:29:44;;;;;;;10.73;9.63;;;21.40;99.90;;;;;;6155689;23;20423;-70
2021/09/06 12:32:14;;;;;;;10.10;8.60;;;21.50;99.90;;;;;;6155041;23;20447;-70
2021/09/06 12:34:41;;;;;;;11.13;9.80;;;21.50;99.90;;;;;;6155228;23;20427;-69
2021/09/06 12:37:08;;;;;;;10.67;9.63;;;21.50;99.90;;;;;;6155454;23;20427;-69
2021/09/06 12:39:37;;;;;;;9.83;8.87;;;21.50;99.90;;;;;;6155032;23;20516;-69
2021/09/06 12:42:05;;;;;;;10.30;9.33;;;21.60;99.90;;;;;;6155352;23;20819;-69
2021/09/06 12:44:32;;;;;;;11.00;9.87;;;21.70;99.90;;;;;;6155542;23;20426;-69
2021/09/06 12:46:59;;;;;;;10.30;9.30;;;21.60;99.90;;;;;;6155001;23;20534;-68
2021/09/06 12:49:27;;;;;;;11.17;10.07;;;21.60;99.90;;;;;;6154822;23;20756;-70
2021/09/06 12:51:55;;;;;;;11.17;10.07;;;21.70;99.90;;;;;;6155537;23;20442;-70
2021/09/06 12:54:21;;;;;;;10.73;9.10;;;21.80;99.90;;;;;;6155058;23;20446;-70
2021/09/06 12:56:51;;;;;;;10.63;9.63;;;21.80;99.90;;;;;;6155566;23;20650;-69
2021/09/06 12:59:18;;;;;;;11.47;9.90;;;21.70;99.90;;;;;;6155581;23;20580;-69
2021/09/06 13:01:47;;;;;;;11.47;9.77;;;21.70;99.90;;;;;;6154049;23;20457;-69
2021/09/06 13:04:13;;;;;;;12.10;9.80;;;21.70;99.90;;;;;;6155038;23;20445;-69
2021/09/06 13:06:40;;;;;;;9.03;8.30;;;21.80;99.90;;;;;;6154634;23;20473;-69
2021/09/06 13:09:07;;;;;;;9.40;8.50;;;21.70;99.90;;;;;;6154938;23;20905;-69
2021/09/06 13:11:33;;;;;;;9.93;8.93;;;21.70;99.90;;;;;;6154542;23;20937;-69
2021/09/06 13:14:04;;;;;;;10.27;9.30;;;21.80;99.90;;;;;;6155042;23;20476;-68
2021/09/06 13:16:31;;;;;;;10.60;9.70;;;21.80;99.90;;;;;;6154154;23;20453;-69
2021/09/06 13:18:58;;;;;;;14.37;9.87;;;21.60;99.90;;;;;;6155240;23;20526;-68
2021/09/06 13:21:24;;;;;;;10.60;9.50;;;21.60;99.90;;;;;;6154319;23;20453;-70
2021/09/06 13:23:51;;;;;;;10.17;9.20;;;21.70;99.90;;;;;;6154968;23;20423;-70
2021/09/06 13:26:18;;;;;;;10.67;9.67;;;21.80;99.90;;;;;;6154359;23;20422;-68
2021/09/06 13:28:45;;;;;;;10.40;9.00;;;21.70;99.90;;;;;;6154983;23;20454;-68
2021/09/06 13:31:14;;;;;;;9.63;8.73;;;21.70;99.90;;;;;;6153975;23;20807;-69
2021/09/06 13:33:40;;;;;;;9.90;8.93;;;21.70;99.90;;;;;;6154733;23;20426;-68
2021/09/06 13:36:08;;;;;;;9.33;8.53;;;21.60;99.90;;;;;;6154277;23;20481;-70
2021/09/06 13:38:35;;;;;;;10.23;9.33;;;21.60;99.90;;;;;;6154878;23;20489;-69
2021/09/06 13:41:02;;;;;;;10.00;9.10;;;21.50;99.90;;;;;;6154010;23;20443;-71
2021/09/06 13:43:29;;;;;;;9.70;8.70;;;21.40;99.90;;;;;;6153874;23;20919;-70
2021/09/06 13:45:56;;;;;;;8.60;7.80;;;21.40;99.90;;;;;;6154569;23;20800;-69
2021/09/06 13:48:24;;;;;;;9.30;8.30;;;21.40;99.90;;;;;;6153941;23;20422;-69
2021/09/06 13:50:51;;;;;;;10.47;8.13;;;21.40;99.90;;;;;;6154236;23;20450;-69
2021/09/06 13:53:17;;;;;;;9.63;8.30;;;21.50;99.90;;;;;;6154050;23;20423;-71
2021/09/06 13:55:44;;;;;;;8.70;7.80;;;21.60;99.90;;;;;;6154548;23;20426;-71
2021/09/06 13:58:11;;;;;;;9.50;8.70;;;21.70;99.90;;;;;;6154609;23;20427;-70
2021/09/06 14:00:37;;;;;;;9.40;8.33;;;21.80;99.90;;;;;;6154148;23;20458;-70
2021/09/06 14:03:04;;;;;;;9.67;8.80;;;21.80;99.90;;;;;;6163461;23;20449;-69
2021/09/06 14:05:32;;;;;;;9.90;8.20;;;21.80;99.90;;;;;;6153643;23;20438;-70
2021/09/06 14:07:59;;;;;;;9.00;7.73;;;21.90;99.90;;;;;;6154485;23;20430;-71
2021/09/06 14:10:26;;;;;;;9.80;9.00;;;21.90;99.90;;;;;;6154080;23;20447;-71
2021/09/06 14:12:52;;;;;;;9.73;8.90;;;21.90;99.90;;;;;;6154042;23;20481;-70
2021/09/06 14:15:19;;;;;;;8.80;8.00;;;21.80;99.90;;;;;;6164373;23;20485;-71
2021/09/06 14:17:47;;;;;;;8.03;7.33;;;21.80;99.90;;;;;;6153460;23;20934;-71
2021/09/06 14:20:14;;;;;;;8.93;7.87;;;21.80;99.90;;;;;;6153693;23;20422;-71
2021/09/06 14:22:42;;;;;;;7.83;7.13;;;21.80;99.90;;;;;;6153823;23;20453;-71
2021/09/06 14:25:10;;;;;;;8.00;7.30;;;21.80;99.90;;;;;;6154108;23;20453;-71
2021/09/06 14:27:36;;;;;;;8.00;7.20;;;21.70;99.90;;;;;;6154314;23;20422;-71
2021/09/06 14:30:04;;;;;;;10.17;8.20;;;21.70;99.90;;;;;;6154084;23;20422;-71
2021/09/06 14:32:30;;;;;;;11.20;8.87;;;21.60;99.90;;;;;;6153688;23;20958;-71
2021/09/06 14:34:57;;;;;;;9.00;7.97;;;21.50;99.90;;;;;;6153295;23;20930;-70
2021/09/06 14:37:24;;;;;;;9.10;8.30;;;21.40;99.90;;;;;;6154308;23;20423;-71
2021/09/06 14:39:52;;;;;;;11.37;8.20;;;21.30;99.90;;;;;;6153930;23;20423;-70
2021/09/06 14:42:18;;;;;;;9.73;8.70;;;21.30;99.90;;;;;;6153262;23;20778;-69
2021/09/06 14:44:45;;;;;;;9.07;8.17;;;21.20;99.90;;;;;;6153699;23;20526;-68
2021/09/06 14:47:12;;;;;;;9.07;8.30;;;21.20;99.90;;;;;;6153854;23;20435;-70
2021/09/06 14:49:39;;;;;;;8.47;7.50;;;21.20;99.90;;;;;;6153621;23;20438;-70
2021/09/06 14:52:06;;;;;;;8.87;8.03;;;21.10;99.90;;;;;;6153482;23;20454;-69
2021/09/06 14:54:34;;;;;;;9.37;8.20;;;21.20;99.90;;;;;;6154050;23;20430;-69
2021/09/06 14:57:03;;;;;;;9.67;8.50;;;21.20;99.90;;;;;;6153716;23;20897;-68
2021/09/06 14:59:30;;;;;;;9.73;8.73;;;21.20;99.90;;;;;;6153548;23;20433;-69
2021/09/06 15:01:57;;;;;;;10.00;8.53;;;21.20;99.90;;;;;;6152777;23;20545;-71
2021/09/06 15:04:23;;;;;;;11.03;10.03;;;21.10;99.90;;;;;;6153586;23;20473;-69
2021/09/06 15:06:50;;;;;;;9.40;8.50;;;21.10;99.90;;;;;;6154140;23;20458;-68
2021/09/06 15:09:17;;;;;;;10.03;8.50;;;21.00;99.90;;;;;;6154171;23;20427;-69
2021/09/06 15:11:43;;;;;;;8.97;8.07;;;21.00;99.90;;;;;;6153290;23;20458;-69
2021/09/06 15:14:11;;;;;;;10.30;8.20;;;21.00;99.90;;;;;;6152870;23;20446;-69
2021/09/06 15:16:38;;;;;;;8.50;7.70;;;21.00;99.90;;;;;;6153270;23;20427;-69
2021/09/06 15:19:06;;;;;;;8.67;7.87;;;20.90;99.90;;;;;;6153858;23;20536;-69
2021/09/06 15:21:33;;;;;;;10.20;9.20;;;21.00;99.90;;;;;;6152258;23;20442;-69
2021/09/06 15:24:00;;;;;;;9.50;7.97;;;20.90;99.90;;;;;;6152895;23;20441;-69
2021/09/06 15:26:26;;;;;;;9.20;8.30;;;20.90;99.90;;;;;;6153846;23;20592;-69
2021/09/06 15:28:53;;;;;;;10.13;8.77;;;20.90;99.90;;;;;;6153724;23;20849;-69
2021/09/06 15:31:33;;;;;;;9.07;8.27;;;20.90;99.90;;;;;;6152679;23;20501;-69
2021/09/06 15:34:01;;;;;;;9.40;8.40;;;20.80;99.90;;;;;;6153112;23;20827;-69
2021/09/06 15:36:27;;;;;;;9.43;8.50;;;20.80;99.90;;;;;;6152731;23;20501;-69
2021/09/06 15:39:01;;;;;;;8.83;7.93;;;20.80;99.90;;;;;;6153552;23;20430;-69
2021/09/06 15:41:29;;;;;;;8.93;8.10;;;20.80;99.90;;;;;;6153450;23;20447;-69
2021/09/06 15:43:56;;;;;;;9.03;8.23;;;20.80;99.90;;;;;;6153295;23;20462;-69
2021/09/06 15:46:23;;;;;;;9.10;8.20;;;20.80;99.90;;;;;;6153029;23;20769;-70
2021/09/06 15:48:51;;;;;;;9.30;8.40;;;20.80;99.90;;;;;;6153604;23;20513;-69
2021/09/06 15:51:17;;;;;;;9.13;7.67;;;20.70;99.90;;;;;;6153069;23;20451;-69
2021/09/06 15:53:45;;;;;;;8.97;7.90;;;20.70;99.90;;;;;;6153700;23;20473;-69
2021/09/06 15:56:11;;;;;;;9.97;8.30;;;20.70;99.90;;;;;;6152973;23;20953;-69
2021/09/06 15:58:38;;;;;;;10.73;8.37;;;20.70;99.90;;;;;;6153610;23;20510;-69
2021/09/06 16:01:05;;;;;;;10.70;8.17;;;20.70;99.90;;;;;;6153522;23;20765;-68
2021/09/06 16:03:32;;;;;;;11.17;7.90;;;20.70;99.90;;;;;;6153012;23;20447;-69
2021/09/06 16:06:01;;;;;;;8.90;8.10;;;20.70;99.90;;;;;;6152691;23;20470;-69
2021/09/06 16:08:27;;;;;;;9.57;8.40;;;20.70;99.90;;;;;;6153684;23;20422;-69
2021/09/06 16:10:54;;;;;;;8.13;7.33;;;20.70;99.90;;;;;;6153275;23;20443;-69
2021/09/06 16:13:21;;;;;;;8.23;7.43;;;20.70;99.90;;;;;;6153618;23;20418;-69
2021/09/06 16:15:47;;;;;;;9.20;8.30;;;20.60;99.90;;;;;;6153104;23;20427;-69
2021/09/06 16:18:14;;;;;;;9.43;8.53;;;20.60;99.90;;;;;;6152813;23;20443;-69
2021/09/06 16:20:41;;;;;;;9.83;9.00;;;20.60;99.90;;;;;;6152939;23;20545;-69
2021/09/06 16:23:09;;;;;;;11.13;8.67;;;20.60;99.90;;;;;;6153386;23;20528;-68
2021/09/06 16:25:37;;;;;;;12.40;8.47;;;20.50;99.90;;;;;;6153748;23;20446;-69
2021/09/06 16:28:04;;;;;;;9.13;8.23;;;20.40;99.90;;;;;;6153784;23;20423;-69
2021/09/06 16:30:33;;;;;;;8.37;7.67;;;20.40;99.90;;;;;;6152933;23;20455;-69
2021/09/06 16:33:00;;;;;;;9.87;8.70;;;20.30;99.90;;;;;;6153796;23;20453;-69
2021/09/06 16:35:28;;;;;;;10.00;7.90;;;20.30;99.90;;;;;;6153574;23;20423;-64